Time;durP1;ratioP1;P1;durP2;ratioP2;P2;SDS_P1;SDS_P2;PMS_P1;PMS_P2;Temp;Humidity;BMP_temperature;BMP_pressure;BME280_temperature;BME280_humidity;BME280_pressure;Samples;Min_cycle;Max_cycle;Signal;HPM_P1;HPM_P2
2024/01/13 00:01:48;;;;;;;11.53;5.80;;;;;;;13.42;46.92;102991.31;5049546;28;20878;-72
2024/01/13 00:04:14;;;;;;;14.70;5.27;;;;;;;13.24;47.05;102998.94;5049175;28;20036;-72
2024/01/13 00:06:39;;;;;;;8.53;4.90;;;;;;;13.38;47.19;102991.28;5048070;28;20056;-73
2024/01/13 00:09:05;;;;;;;8.73;5.33;;;;;;;13.43;46.52;102982.56;5049762;28;20427;-73
2024/01/13 00:11:30;;;;;;;9.00;5.60;;;;;;;13.13;46.90;102989.16;5047249;28;20021;-73
2024/01/13 00:13:55;;;;;;;8.67;5.57;;;;;;;13.34;46.19;102978.94;5047813;28;20037;-72
2024/01/13 00:16:21;;;;;;;9.53;5.57;;;;;;;13.19;46.66;102973.50;5047464;28;20033;-73
2024/01/13 00:18:46;;;;;;;9.10;5.57;;;;;;;13.30;46.85;102971.88;5044198;28;20135;-73
2024/01/13 00:21:11;;;;;;;11.17;5.07;;;;;;;13.49;46.43;102973.03;5028373;28;20034;-73
2024/01/13 00:23:37;;;;;;;9.43;5.07;;;;;;;13.36;46.32;102961.47;5043825;28;20068;-73
2024/01/13 00:26:02;;;;;;;9.73;5.97;;;;;;;13.11;47.70;102969.88;5049135;28;20029;-72
2024/01/13 00:28:29;;;;;;;10.00;5.47;;;;;;;13.23;47.50;102959.53;5052831;28;20037;-72
2024/01/13 00:30:54;;;;;;;9.73;5.13;;;;;;;13.56;46.57;102952.97;5051758;28;20033;-72
2024/01/13 00:33:20;;;;;;;12.67;6.03;;;;;;;13.31;46.76;102962.25;5052565;28;20081;-72
2024/01/13 00:35:45;;;;;;;8.33;4.93;;;;;;;13.36;46.28;102953.59;5051395;28;20108;-71
2024/01/13 00:38:11;;;;;;;8.03;4.87;;;;;;;12.96;47.01;102955.66;5051787;28;20037;-71
2024/01/13 00:40:36;;;;;;;7.27;4.90;;;;;;;13.18;47.46;102948.09;5047516;28;20116;-72
2024/01/13 00:43:01;;;;;;;9.37;5.17;;;;;;;13.52;47.12;102943.28;5051759;28;20040;-72
2024/01/13 00:45:27;;;;;;;10.03;5.07;;;;;;;13.39;46.96;102944.88;5048033;28;20053;-71
2024/01/13 00:47:52;;;;;;;11.53;6.00;;;;;;;12.89;47.94;102938.94;5043850;28;20506;-71
2024/01/13 00:50:18;;;;;;;16.03;5.77;;;;;;;13.35;46.78;102933.47;5051821;28;20021;-72
2024/01/13 00:52:43;;;;;;;11.30;6.43;;;;;;;13.68;45.68;102924.19;5050976;28;20036;-72
2024/01/13 00:55:08;;;;;;;10.33;5.97;;;;;;;13.33;46.89;102929.00;5050754;28;20079;-71
2024/01/13 00:57:34;;;;;;;10.93;6.53;;;;;;;13.05;47.67;102919.03;5052324;28;20111;-72
2024/01/13 00:59:59;;;;;;;9.60;5.30;;;;;;;13.17;48.05;102920.91;5051582;28;20469;-72
2024/01/13 01:02:25;;;;;;;9.00;5.17;;;;;;;13.43;46.82;102919.53;5050720;28;20035;-72
2024/01/13 01:04:50;;;;;;;12.50;5.77;;;;;;;13.26;47.38;102928.06;5050918;28;20355;-72
2024/01/13 01:07:16;;;;;;;10.73;5.40;;;;;;;13.43;46.92;102924.78;5047024;28;20119;-71
2024/01/13 01:09:41;;;;;;;12.10;5.77;;;;;;;13.50;47.13;102918.72;5050106;28;20036;-71
2024/01/13 01:12:07;;;;;;;10.40;5.60;;;;;;;13.46;47.14;102909.91;5051212;28;20029;-71
2024/01/13 01:14:32;;;;;;;9.73;5.70;;;;;;;13.50;47.77;102910.84;5063094;28;20044;-71
2024/01/13 01:16:57;;;;;;;11.30;6.20;;;;;;;13.78;46.87;102900.59;5051258;28;20144;-72
2024/01/13 01:19:23;;;;;;;11.53;5.67;;;;;;;13.85;46.75;102902.44;5051110;28;20079;-72
2024/01/13 01:21:49;;;;;;;10.93;5.60;;;;;;;13.48;47.02;102902.06;5051492;28;20106;-71
2024/01/13 01:24:14;;;;;;;17.73;6.10;;;;;;;13.62;47.63;102902.22;5052307;28;20075;-71
2024/01/13 01:26:40;;;;;;;8.93;5.57;;;;;;;13.74;46.64;102907.59;5050265;28;20477;-72
2024/01/13 01:29:06;;;;;;;11.60;5.67;;;;;;;13.33;47.64;102908.88;5049980;28;20499;-71
2024/01/13 01:31:31;;;;;;;9.50;5.43;;;;;;;13.28;47.34;102909.69;5050471;28;20025;-72
2024/01/13 01:33:56;;;;;;;12.50;4.67;;;;;;;12.94;48.46;102915.41;5050843;28;20029;-71
2024/01/13 01:36:22;;;;;;;9.67;5.70;;;;;;;12.70;49.02;102901.06;5049633;28;20033;-71
2024/01/13 01:38:47;;;;;;;11.80;5.73;;;;;;;12.70;49.57;102894.94;5050661;28;20107;-72
2024/01/13 01:41:14;;;;;;;11.40;6.00;;;;;;;12.00;51.67;102893.88;5050946;28;20029;-71
2024/01/13 01:43:39;;;;;;;14.00;6.00;;;;;;;12.65;49.54;102894.00;5049323;28;20033;-71
2024/01/13 01:46:06;;;;;;;11.57;5.97;;;;;;;13.20;48.41;102896.44;5051717;28;20098;-71
2024/01/13 01:48:39;;;;;;;11.47;6.43;;;;;;;13.56;47.39;102880.25;5049935;28;20148;-72
2024/01/13 01:51:05;;;;;;;12.20;6.50;;;;;;;13.03;48.63;102888.38;5049727;28;20123;-72
2024/01/13 01:53:31;;;;;;;11.77;6.80;;;;;;;12.87;49.04;102884.66;5049765;28;20116;-72
2024/01/13 01:55:59;;;;;;;15.37;7.40;;;;;;;12.89;48.89;102882.97;5051928;28;20108;-72
2024/01/13 01:58:29;;;;;;;11.70;6.80;;;;;;;13.11;48.56;102884.09;5050720;28;20049;-72
2024/01/13 02:00:54;;;;;;;19.50;7.57;;;;;;;13.39;47.65;102872.22;5050214;28;20032;-72
2024/01/13 02:03:20;;;;;;;15.30;7.70;;;;;;;13.21;48.22;102871.97;5051369;28;20429;-71
2024/01/13 02:05:45;;;;;;;12.97;7.10;;;;;;;13.12;48.37;102871.84;5049671;28;20043;-72
2024/01/13 02:08:11;;;;;;;13.00;6.73;;;;;;;12.94;49.53;102862.00;5050308;28;20025;-72
2024/01/13 02:10:36;;;;;;;15.03;6.97;;;;;;;12.75;49.57;102863.50;5048902;28;20033;-72
2024/01/13 02:13:02;;;;;;;12.23;6.47;;;;;;;13.18;48.70;102853.56;5051099;28;20124;-72
2024/01/13 02:15:28;;;;;;;14.57;7.63;;;;;;;13.32;48.86;102851.94;5049926;28;20120;-71
2024/01/13 02:17:53;;;;;;;14.07;7.17;;;;;;;13.37;48.54;102852.03;5048930;28;20035;-72
2024/01/13 02:20:18;;;;;;;14.40;7.10;;;;;;;13.36;48.56;102845.88;5051013;28;20029;-72
2024/01/13 02:22:44;;;;;;;16.43;8.07;;;;;;;13.58;47.82;102851.38;5049462;28;20025;-72
2024/01/13 02:25:09;;;;;;;15.27;7.93;;;;;;;13.59;48.10;102845.25;5050533;28;20497;-72
2024/01/13 02:27:35;;;;;;;13.37;7.10;;;;;;;13.56;47.80;102840.84;5050140;28;20032;-72
2024/01/13 02:30:00;;;;;;;11.93;7.40;;;;;;;13.73;47.71;102835.72;5045832;28;20047;-72
2024/01/13 02:32:25;;;;;;;12.67;6.43;;;;;;;13.84;47.46;102827.94;5032048;28;20115;-72
2024/01/13 02:34:51;;;;;;;16.73;8.37;;;;;;;13.94;47.04;102828.03;5050516;28;20037;-71
2024/01/13 02:37:17;;;;;;;14.67;8.13;;;;;;;13.70;47.64;102814.69;5049571;28;20029;-71
2024/01/13 02:39:42;;;;;;;20.33;8.70;;;;;;;13.64;47.37;102809.41;5048235;28;20120;-72
2024/01/13 02:42:08;;;;;;;20.53;8.87;;;;;;;13.82;47.44;102813.03;5048907;28;20024;-72
2024/01/13 02:44:34;;;;;;;18.30;9.57;;;;;;;13.51;47.90;102803.13;5048894;28;20091;-72
2024/01/13 02:46:59;;;;;;;17.30;8.73;;;;;;;13.60;47.69;102804.09;5048821;28;20067;-72
2024/01/13 02:49:25;;;;;;;19.20;9.03;;;;;;;13.84;47.89;102790.28;5048692;28;20496;-72
2024/01/13 02:51:50;;;;;;;17.83;7.47;;;;;;;13.73;47.45;102788.44;5049261;28;20082;-72
2024/01/13 02:54:15;;;;;;;20.40;9.57;;;;;;;13.03;49.21;102800.00;5045347;28;20485;-72
2024/01/13 02:56:41;;;;;;;16.40;8.27;;;;;;;13.32;49.51;102788.91;5047033;28;20032;-72
2024/01/13 02:59:09;;;;;;;16.23;7.47;;;;;;;13.35;49.36;102786.38;5050458;28;20420;-72
2024/01/13 03:01:34;;;;;;;15.57;7.93;;;;;;;12.73;49.84;102783.06;5044249;28;20460;-72
2024/01/13 03:04:00;;;;;;;17.60;8.20;;;;;;;13.24;49.13;102777.44;5029500;28;20056;-72
2024/01/13 03:06:26;;;;;;;16.20;7.03;;;;;;;12.67;49.80;102780.34;5029328;28;20044;-71
2024/01/13 03:08:57;;;;;;;12.37;6.20;;;;;;;13.15;49.23;102773.00;5028088;28;20021;-72
2024/01/13 03:11:23;;;;;;;13.90;6.10;;;;;;;12.46;50.91;102777.44;5031336;28;20037;-72
2024/01/13 03:13:48;;;;;;;11.47;5.57;;;;;;;12.09;51.50;102769.06;5048992;28;20043;-71
2024/01/13 03:16:14;;;;;;;13.53;5.90;;;;;;;12.81;50.18;102766.50;5048878;28;20496;-72
2024/01/13 03:18:40;;;;;;;11.13;5.17;;;;;;;12.78;50.39;102762.09;5048759;28;20056;-72
2024/01/13 03:21:05;;;;;;;9.67;5.43;;;;;;;13.22;49.26;102752.94;5048193;28;20027;-72
2024/01/13 03:23:31;;;;;;;11.03;4.97;;;;;;;12.56;51.07;102758.34;5048852;28;20032;-72
2024/01/13 03:25:56;;;;;;;10.90;5.10;;;;;;;13.00;49.90;102757.97;5050314;28;20024;-72
2024/01/13 03:28:22;;;;;;;9.73;4.80;;;;;;;12.91;50.40;102747.34;5047529;28;20454;-72
2024/01/13 03:30:48;;;;;;;8.93;4.00;;;;;;;12.49;50.77;102743.41;5047804;28;20464;-72
2024/01/13 03:33:14;;;;;;;10.17;5.17;;;;;;;12.85;50.50;102734.19;5048843;28;20063;-72
2024/01/13 03:35:40;;;;;;;17.90;5.90;;;;;;;12.62;50.54;102736.53;5047258;28;20021;-72
2024/01/13 03:38:05;;;;;;;10.67;5.20;;;;;;;13.32;50.00;102746.88;5048956;28;20373;-72
2024/01/13 03:40:31;;;;;;;11.23;4.83;;;;;;;13.61;48.67;102734.91;5049661;28;20017;-72
2024/01/13 03:42:56;;;;;;;11.47;5.10;;;;;;;13.47;49.46;102732.19;5047549;28;20025;-72
2024/01/13 03:45:21;;;;;;;10.07;5.50;;;;;;;13.23;49.42;102724.06;5048691;28;20072;-72
2024/01/13 03:47:47;;;;;;;12.53;5.90;;;;;;;12.50;51.04;102725.06;5048443;28;20025;-72
2024/01/13 03:50:12;;;;;;;12.63;6.17;;;;;;;12.55;51.36;102717.22;5044652;28;20032;-72
2024/01/13 03:52:37;;;;;;;11.40;5.50;;;;;;;12.39;51.43;102706.56;5044828;28;20029;-72
2024/01/13 03:55:03;;;;;;;9.00;5.23;;;;;;;12.24;52.89;102711.63;5047852;28;20029;-72
2024/01/13 03:57:29;;;;;;;9.20;5.03;;;;;;;11.61;53.91;102703.72;5034016;28;20120;-72
2024/01/13 03:59:55;;;;;;;7.40;4.80;;;;;;;12.23;52.28;102699.38;5046073;28;20074;-72
2024/01/13 04:02:20;;;;;;;8.73;4.63;;;;;;;12.60;50.42;102698.91;5052609;28;20480;-72
2024/01/13 04:04:45;;;;;;;8.60;4.70;;;;;;;12.75;51.50;102692.94;5052650;28;20032;-72
2024/01/13 04:07:11;;;;;;;9.40;4.70;;;;;;;13.29;49.76;102681.22;5052025;28;20021;-72
2024/01/13 04:09:39;;;;;;;7.00;4.07;;;;;;;13.12;49.51;102680.19;5052194;28;20489;-72
2024/01/13 04:12:05;;;;;;;6.70;4.20;;;;;;;12.86;51.02;102675.59;5053020;28;20040;-72
2024/01/13 04:14:31;;;;;;;4.83;3.17;;;;;;;11.99;53.19;102679.84;5053145;28;20381;-72
2024/01/13 04:16:58;;;;;;;6.33;3.93;;;;;;;11.77;54.02;102688.22;5051893;28;20028;-73
2024/01/13 04:19:24;;;;;;;7.80;4.03;;;;;;;13.13;50.51;102679.31;5052417;28;20021;-72
2024/01/13 04:21:49;;;;;;;8.77;4.70;;;;;;;12.78;51.57;102679.88;5053377;28;20036;-72
2024/01/13 04:24:14;;;;;;;8.67;4.13;;;;;;;12.62;51.49;102692.81;5052763;28;20025;-72
2024/01/13 04:26:40;;;;;;;5.97;4.07;;;;;;;12.55;52.24;102664.75;5048200;28;20112;-72
2024/01/13 04:29:05;;;;;;;7.50;4.57;;;;;;;12.59;51.02;102677.06;5041583;28;20021;-72
2024/01/13 04:31:31;;;;;;;8.90;4.57;;;;;;;12.81;51.27;102669.41;5050977;28;20508;-72
2024/01/13 04:33:56;;;;;;;7.07;4.33;;;;;;;12.38;51.65;102673.31;5053094;28;20025;-72
2024/01/13 04:36:22;;;;;;;5.70;3.80;;;;;;;12.24;53.06;102674.91;5051929;28;20044;-72
2024/01/13 04:38:47;;;;;;;7.30;3.93;;;;;;;12.37;52.51;102668.94;5050776;28;20024;-72
2024/01/13 04:41:13;;;;;;;8.67;4.63;;;;;;;13.51;50.44;102676.16;5052053;28;20070;-72
2024/01/13 04:43:38;;;;;;;7.57;4.20;;;;;;;12.67;52.19;102680.63;5051383;28;20079;-72
2024/01/13 04:46:05;;;;;;;7.40;3.90;;;;;;;12.53;52.40;102677.00;5050954;28;20504;-72
2024/01/13 04:48:31;;;;;;;6.53;3.77;;;;;;;12.23;52.63;102670.53;5051321;28;20427;-72
2024/01/13 04:50:56;;;;;;;9.63;4.33;;;;;;;12.01;53.28;102667.63;5053153;28;20029;-72
2024/01/13 04:53:22;;;;;;;9.97;4.73;;;;;;;13.05;51.11;102661.78;5050616;28;20064;-72
2024/01/13 04:55:47;;;;;;;9.57;4.10;;;;;;;12.92;51.08;102662.50;5052619;28;20503;-72
2024/01/13 04:58:13;;;;;;;8.90;4.57;;;;;;;12.90;51.34;102661.63;5051295;28;20040;-72
2024/01/13 05:00:38;;;;;;;7.93;4.43;;;;;;;13.05;50.40;102667.03;5049735;28;20029;-72
2024/01/13 05:03:04;;;;;;;9.63;4.27;;;;;;;12.47;52.34;102655.94;5051606;28;20075;-72
2024/01/13 05:05:32;;;;;;;6.80;4.13;;;;;;;13.02;51.29;102661.75;5051804;28;20032;-72
2024/01/13 05:07:57;;;;;;;7.60;3.87;;;;;;;12.45;53.16;102662.91;5050147;28;20079;-72
2024/01/13 05:10:23;;;;;;;7.63;3.80;;;;;;;12.07;53.39;102658.94;5051085;28;20501;-72
2024/01/13 05:12:48;;;;;;;7.83;3.80;;;;;;;12.51;52.27;102662.97;5051458;28;20082;-71
2024/01/13 05:15:14;;;;;;;10.90;4.37;;;;;;;13.09;50.82;102675.78;5050451;28;20020;-72
2024/01/13 05:17:39;;;;;;;8.47;4.30;;;;;;;12.94;50.50;102673.94;5062102;28;20025;-72
2024/01/13 05:20:05;;;;;;;8.43;4.37;;;;;;;12.71;51.34;102671.94;5050903;28;20048;-72
2024/01/13 05:22:30;;;;;;;7.67;3.53;;;;;;;12.94;50.67;102663.44;5049925;28;20030;-72
2024/01/13 05:24:56;;;;;;;6.10;3.63;;;;;;;12.85;51.14;102679.06;5050958;28;20143;-72
2024/01/13 05:27:21;;;;;;;7.53;4.43;;;;;;;12.55;51.43;102670.00;5051585;28;20037;-72
2024/01/13 05:29:47;;;;;;;7.07;4.00;;;;;;;12.26;51.77;102672.31;5051684;28;20033;-71
2024/01/13 05:32:12;;;;;;;7.50;4.40;;;;;;;13.25;50.62;102668.94;5052361;28;20032;-72
2024/01/13 05:34:39;;;;;;;8.97;4.43;;;;;;;12.56;51.51;102656.03;5050791;28;20358;-72
2024/01/13 05:37:05;;;;;;;8.50;4.07;;;;;;;12.99;50.66;102650.34;5052250;28;20481;-72
2024/01/13 05:39:30;;;;;;;9.10;4.30;;;;;;;12.99;50.85;102647.72;5051501;28;20017;-71
2024/01/13 05:41:58;;;;;;;7.00;3.30;;;;;;;12.42;52.34;102647.13;5051102;28;20043;-72
2024/01/13 05:44:23;;;;;;;9.97;4.47;;;;;;;12.97;50.86;102626.69;5050754;28;20036;-72
2024/01/13 05:46:48;;;;;;;9.47;4.67;;;;;;;12.41;51.99;102619.16;5049953;28;20041;-72
2024/01/13 05:49:14;;;;;;;13.10;5.10;;;;;;;12.29;52.45;102618.16;5051207;28;20483;-72
2024/01/13 05:51:40;;;;;;;12.60;4.53;;;;;;;12.38;52.14;102620.00;5049986;28;20040;-72
2024/01/13 05:54:05;;;;;;;11.07;3.73;;;;;;;12.58;52.24;102622.81;5050649;28;20491;-72
2024/01/13 05:56:31;;;;;;;7.87;4.20;;;;;;;12.92;50.68;102628.41;5049343;28;20068;-72
2024/01/13 05:58:56;;;;;;;6.37;3.37;;;;;;;12.97;50.58;102626.69;5049554;28;20389;-72
2024/01/13 06:01:24;;;;;;;6.53;3.97;;;;;;;12.17;51.92;102634.63;5051616;28;20021;-72
2024/01/13 06:03:50;;;;;;;6.67;4.00;;;;;;;11.92;52.75;102630.78;5049233;28;20363;-72
2024/01/13 06:06:17;;;;;;;6.67;3.13;;;;;;;11.94;53.11;102631.72;5046809;28;20027;-72
2024/01/13 06:08:42;;;;;;;4.87;3.23;;;;;;;12.24;51.79;102632.97;5048205;28;20040;-72
2024/01/13 06:11:08;;;;;;;6.80;2.97;;;;;;;12.52;51.10;102626.25;5051116;28;20029;-72
2024/01/13 06:13:33;;;;;;;4.43;2.10;;;;;;;11.41;53.30;102629.19;5049808;28;20068;-72
2024/01/13 06:15:58;;;;;;;6.40;2.37;;;;;;;11.00;54.96;102604.13;5050216;28;20048;-72
2024/01/13 06:18:24;;;;;;;5.23;2.63;;;;;;;11.27;55.54;102614.16;5048855;28;20025;-72
2024/01/13 06:20:50;;;;;;;3.17;2.20;;;;;;;11.24;54.65;102614.09;5049673;28;20033;-72
2024/01/13 06:23:15;;;;;;;5.57;1.80;;;;;;;10.62;56.34;102623.53;5050637;28;20024;-72
2024/01/13 06:25:40;;;;;;;4.80;2.93;;;;;;;11.59;53.82;102615.50;5045112;28;20465;-72
2024/01/13 06:28:06;;;;;;;4.93;2.20;;;;;;;12.46;51.71;102599.09;5044717;28;20037;-72
2024/01/13 06:30:34;;;;;;;3.97;2.10;;;;;;;11.97;52.60;102587.19;5049254;28;20036;-72
2024/01/13 06:33:00;;;;;;;3.10;1.20;;;;;;;11.07;54.02;102578.94;5049373;28;20095;-72
2024/01/13 06:35:25;;;;;;;4.77;1.77;;;;;;;11.91;52.91;102565.25;5051612;28;20021;-72
2024/01/13 06:37:51;;;;;;;5.07;2.37;;;;;;;11.77;52.42;102567.69;5047455;28;20020;-72
2024/01/13 06:40:17;;;;;;;4.97;2.20;;;;;;;10.88;54.81;102562.94;5049507;28;20029;-72
2024/01/13 06:42:42;;;;;;;2.67;1.80;;;;;;;11.18;55.17;102561.66;5049166;28;20374;-72
2024/01/13 06:45:08;;;;;;;3.00;1.73;;;;;;;12.08;52.78;102550.63;5048770;28;20514;-72
2024/01/13 06:47:33;;;;;;;3.77;2.30;;;;;;;11.92;52.57;102556.53;5048995;28;20045;-72
2024/01/13 06:49:59;;;;;;;5.57;2.93;;;;;;;11.73;52.55;102545.81;5048388;28;21062;-72
2024/01/13 06:52:24;;;;;;;2.43;1.90;;;;;;;11.62;52.30;102543.09;5048644;28;20075;-72
2024/01/13 06:54:50;;;;;;;7.23;3.13;;;;;;;11.00;54.64;102542.22;5048566;28;20028;-72
2024/01/13 06:57:16;;;;;;;6.83;3.20;;;;;;;11.58;53.20;102530.81;5049558;28;20029;-72
2024/01/13 06:59:43;;;;;;;5.07;2.83;;;;;;;11.77;52.39;102525.78;5047982;28;20393;-72
2024/01/13 07:02:09;;;;;;;4.70;2.63;;;;;;;11.25;52.91;102521.63;5049524;28;20583;-72
2024/01/13 07:04:37;;;;;;;5.53;3.17;;;;;;;10.67;54.92;102538.19;5050191;28;20068;-72
2024/01/13 07:07:03;;;;;;;8.47;2.50;;;;;;;11.05;52.71;102542.28;5048010;28;20036;-72
2024/01/13 07:09:29;;;;;;;6.77;3.53;;;;;;;11.14;53.71;102538.91;5048352;28;20020;-72
2024/01/13 07:11:55;;;;;;;5.73;3.50;;;;;;;11.19;53.10;102526.78;5049010;28;20027;-72
2024/01/13 07:14:20;;;;;;;7.60;4.00;;;;;;;12.55;49.82;102524.00;5048533;28;20070;-72
2024/01/13 07:16:46;;;;;;;8.50;3.67;;;;;;;12.12;50.55;102522.72;5045246;28;20029;-72
2024/01/13 07:19:11;;;;;;;6.33;3.53;;;;;;;12.51;49.89;102534.44;5042883;28;20021;-72
2024/01/13 07:21:36;;;;;;;6.13;3.97;;;;;;;11.97;50.61;102521.69;5047696;28;20432;-72
2024/01/13 07:24:03;;;;;;;6.23;4.10;;;;;;;12.08;50.95;102513.94;5049090;28;20028;-72
2024/01/13 07:26:29;;;;;;;7.37;3.83;;;;;;;11.14;52.60;102502.25;5048756;28;20021;-71
2024/01/13 07:28:55;;;;;;;10.03;4.80;;;;;;;12.11;50.53;102494.75;5047735;28;20025;-72
2024/01/13 07:31:21;;;;;;;7.37;4.57;;;;;;;11.17;52.50;102512.81;5048260;28;20659;-72
2024/01/13 07:33:46;;;;;;;13.63;5.33;;;;;;;10.59;54.02;102518.88;5048120;28;20029;-72
2024/01/13 07:36:12;;;;;;;13.37;5.90;;;;;;;11.37;51.99;102493.00;5047618;28;20493;-72
2024/01/13 07:38:37;;;;;;;11.47;6.23;;;;;;;11.75;51.04;102480.38;5042529;28;20067;-72
2024/01/13 07:41:02;;;;;;;11.47;5.87;;;;;;;11.03;52.42;102494.25;5044679;28;20385;-73
2024/01/13 07:43:29;;;;;;;12.10;6.30;;;;;;;11.16;53.27;102516.28;5047940;28;20460;-72
2024/01/13 07:45:54;;;;;;;11.87;4.87;;;;;;;10.83;53.32;102512.28;5047437;28;20076;-72
2024/01/13 07:48:20;;;;;;;10.13;5.17;;;;;;;10.84;53.64;102498.34;5046141;28;20071;-72
2024/01/13 07:50:45;;;;;;;10.13;5.13;;;;;;;10.25;54.80;102502.56;5047914;28;20060;-72
2024/01/13 07:53:11;;;;;;;11.53;5.53;;;;;;;10.40;55.07;102496.78;5046624;28;20083;-72
2024/01/13 07:55:36;;;;;;;13.57;6.77;;;;;;;11.25;53.17;102511.16;5047328;28;20024;-72
2024/01/13 07:58:01;;;;;;;14.67;7.07;;;;;;;10.82;53.64;102529.69;5049538;28;20393;-72
2024/01/13 08:00:27;;;;;;;12.03;5.67;;;;;;;10.54;54.40;102504.84;5048658;28;20071;-73
2024/01/13 08:02:53;;;;;;;13.00;6.67;;;;;;;10.78;53.46;102490.41;5047318;28;20485;-72
2024/01/13 08:05:19;;;;;;;9.47;4.67;;;;;;;10.46;54.08;102496.00;5045297;28;20060;-73
2024/01/13 08:07:45;;;;;;;13.20;6.57;;;;;;;10.89;53.09;102491.44;5028297;28;20018;-73
2024/01/13 08:10:10;;;;;;;13.53;6.23;;;;;;;10.89;52.66;102490.56;5044112;28;20029;-72
2024/01/13 08:12:36;;;;;;;11.30;6.53;;;;;;;11.17;52.28;102481.38;5047397;28;20074;-72
2024/01/13 08:15:01;;;;;;;10.17;5.03;;;;;;;10.94;53.34;102489.78;5048496;28;20029;-72
2024/01/13 08:17:26;;;;;;;11.47;5.47;;;;;;;10.87;52.65;102493.16;5047196;28;20492;-73
2024/01/13 08:19:52;;;;;;;10.40;5.60;;;;;;;10.43;54.17;102507.28;5048156;28;20020;-72
2024/01/13 08:22:17;;;;;;;7.67;4.27;;;;;;;10.06;55.14;102495.25;5048244;28;20021;-72
2024/01/13 08:24:42;;;;;;;11.00;5.63;;;;;;;11.18;52.54;102490.97;5047274;28;20121;-73
2024/01/13 08:27:08;;;;;;;12.43;5.60;;;;;;;10.93;53.08;102500.22;5048208;28;20521;-73
2024/01/13 08:29:33;;;;;;;10.53;4.90;;;;;;;12.12;50.04;102486.91;5045442;28;20104;-73
2024/01/13 08:31:58;;;;;;;10.73;4.93;;;;;;;11.32;51.15;102496.41;5043889;28;20489;-74
2024/01/13 08:34:24;;;;;;;8.33;4.27;;;;;;;10.49;53.47;102496.03;5034127;28;20182;-72
2024/01/13 08:36:49;;;;;;;11.07;5.27;;;;;;;10.17;53.52;102496.31;5041543;28;20056;-72
2024/01/13 08:39:15;;;;;;;10.03;4.67;;;;;;;10.99;52.43;102482.88;5041811;28;20092;-72
2024/01/13 08:41:40;;;;;;;12.30;4.97;;;;;;;11.26;51.62;102491.97;5047458;28;20028;-72
2024/01/13 08:44:05;;;;;;;6.30;2.90;;;;;;;10.69;52.72;102485.91;5048218;28;20513;-72
2024/01/13 08:46:32;;;;;;;10.87;4.73;;;;;;;10.56;52.56;102503.13;5047224;28;20041;-72
2024/01/13 08:48:57;;;;;;;9.03;4.50;;;;;;;11.18;51.44;102489.25;5051816;28;20075;-72
2024/01/13 08:51:23;;;;;;;11.73;4.27;;;;;;;10.85;52.52;102495.75;5050620;28;20439;-72
2024/01/13 08:53:49;;;;;;;8.10;4.13;;;;;;;11.35;51.01;102479.00;5050726;28;20321;-72
2024/01/13 08:56:14;;;;;;;7.90;4.73;;;;;;;10.68;51.91;102486.75;5050824;28;20029;-72
2024/01/13 08:58:40;;;;;;;10.13;5.40;;;;;;;11.11;51.49;102471.69;5049348;28;20119;-72
2024/01/13 09:01:05;;;;;;;6.80;3.53;;;;;;;11.02;51.88;102477.69;5048205;28;20078;-72
2024/01/13 09:03:30;;;;;;;9.40;4.47;;;;;;;11.42;50.58;102458.16;5033522;28;20461;-73
2024/01/13 09:05:56;;;;;;;5.63;3.10;;;;;;;10.44;52.30;102476.78;5050793;28;20045;-72
2024/01/13 09:08:23;;;;;;;9.33;4.70;;;;;;;11.76;50.21;102471.63;5052091;28;20082;-72
2024/01/13 09:10:48;;;;;;;10.83;4.53;;;;;;;11.21;50.99;102477.97;5051521;28;20037;-72
2024/01/13 09:13:14;;;;;;;9.43;4.30;;;;;;;11.24;50.04;102475.38;5050398;28;20059;-73
2024/01/13 09:15:39;;;;;;;6.87;3.97;;;;;;;10.74;52.06;102476.38;5050639;28;20033;-73
2024/01/13 09:18:06;;;;;;;9.77;4.67;;;;;;;11.30;51.40;102470.19;5050377;28;20118;-72
2024/01/13 09:20:32;;;;;;;7.17;4.13;;;;;;;11.31;51.01;102469.34;5049767;28;20147;-73
2024/01/13 09:22:58;;;;;;;10.37;4.53;;;;;;;12.05;49.15;102464.97;5048058;28;20530;-73
2024/01/13 09:25:23;;;;;;;13.27;5.17;;;;;;;12.25;49.08;102461.66;5050487;28;20499;-73
2024/01/13 09:27:48;;;;;;;7.80;4.30;;;;;;;11.77;49.76;102460.28;5049299;28;20377;-72
2024/01/13 09:30:15;;;;;;;11.93;5.33;;;;;;;12.35;48.59;102453.03;5050603;28;20060;-73
2024/01/13 09:32:42;;;;;;;11.83;5.27;;;;;;;10.61;51.55;102459.63;5050708;28;20029;-73
2024/01/13 09:35:08;;;;;;;14.40;6.37;;;;;;;11.20;50.62;102453.50;5050378;28;20036;-73
2024/01/13 09:37:34;;;;;;;22.50;9.43;;;;;;;10.40;51.95;102459.28;5049307;28;20516;-72
2024/01/13 09:39:59;;;;;;;18.30;7.70;;;;;;;10.86;50.84;102449.53;5049157;28;20033;-73
2024/01/13 09:42:41;;;;;;;25.07;8.70;;;;;;;10.62;51.31;102453.56;5049665;28;20033;-73
2024/01/13 09:45:09;;;;;;;17.73;8.53;;;;;;;9.72;52.77;102458.03;5050552;28;20400;-73
2024/01/13 09:47:35;;;;;;;19.13;9.83;;;;;;;9.90;52.66;102452.28;5049156;28;20473;-73
2024/01/13 09:50:00;;;;;;;22.70;11.20;;;;;;;9.88;52.26;102448.75;5050165;28;20036;-73
2024/01/13 09:52:26;;;;;;;33.07;12.70;;;;;;;10.33;51.53;102448.69;5049904;28;20128;-73
2024/01/13 09:54:59;;;;;;;40.10;15.37;;;;;;;10.75;51.65;102441.53;5049538;28;20024;-73
2024/01/13 09:57:25;;;;;;;27.77;11.70;;;;;;;11.61;48.94;102436.56;5049494;28;20135;-73
2024/01/13 09:59:50;;;;;;;21.80;9.40;;;;;;;11.11;49.66;102442.03;5048720;28;20029;-72
2024/01/13 10:02:16;;;;;;;23.70;9.87;;;;;;;10.78;50.88;102457.25;5049323;28;20033;-73
2024/01/13 10:04:46;;;;;;;22.00;9.67;;;;;;;10.67;51.25;102454.50;5050594;28;20043;-74
2024/01/13 10:07:11;;;;;;;23.63;10.47;;;;;;;10.72;51.16;102443.25;5050420;28;20059;-74
2024/01/13 10:09:38;;;;;;;25.23;9.73;;;;;;;10.51;50.32;102457.75;5045595;28;20481;-74
2024/01/13 10:12:06;;;;;;;13.77;6.93;;;;;;;10.28;50.63;102452.97;5049810;28;20370;-74
2024/01/13 10:14:32;;;;;;;23.27;9.70;;;;;;;10.29;50.47;102446.00;5049415;28;20381;-73
2024/01/13 10:17:01;;;;;;;17.53;8.03;;;;;;;10.64;50.35;102449.22;5049631;28;20035;-72
2024/01/13 10:19:27;;;;;;;22.53;10.83;;;;;;;10.73;50.17;102442.38;5048757;28;20059;-73
2024/01/13 10:21:52;;;;;;;19.90;8.03;;;;;;;9.78;51.45;102452.91;5047456;28;20052;-73
2024/01/13 10:24:18;;;;;;;20.60;10.70;;;;;;;10.23;50.57;102440.69;5048807;28;20025;-74
2024/01/13 10:26:43;;;;;;;24.37;11.30;;;;;;;10.64;49.68;102438.75;5065484;28;20029;-74
2024/01/13 10:29:08;;;;;;;22.80;10.83;;;;;;;10.69;49.85;102431.88;5004925;28;20408;-75
2024/01/13 10:31:35;;;;;;;25.90;11.03;;;;;;;10.06;50.89;102443.00;5051668;28;20043;-74
2024/01/13 10:34:00;;;;;;;27.00;12.27;;;;;;;10.64;50.14;102433.53;5048569;28;20029;-74
2024/01/13 10:36:26;;;;;;;23.03;10.77;;;;;;;11.32;48.31;102433.56;5046141;28;20079;-74
2024/01/13 10:38:51;;;;;;;23.27;11.80;;;;;;;11.21;48.70;102430.84;5044334;28;20435;-74
2024/01/13 10:41:26;;;;;;;28.27;13.53;;;;;;;10.91;49.63;102429.56;5048927;28;20059;-74
2024/01/13 10:43:55;;;;;;;29.53;12.63;;;;;;;10.74;50.43;102418.84;5048058;28;20025;-74
2024/01/13 10:46:26;;;;;;;24.27;11.00;;;;;;;10.48;50.82;102415.84;5047488;28;20048;-73
2024/01/13 10:48:59;;;;;;;32.13;14.20;;;;;;;11.20;49.41;102403.78;5045424;28;20026;-73
2024/01/13 10:51:42;;;;;;;24.53;11.63;;;;;;;11.06;49.50;102404.44;5049359;28;20031;-74
2024/01/13 10:54:09;;;;;;;30.80;12.10;;;;;;;11.87;47.35;102404.53;5050401;28;20021;-74
2024/01/13 10:56:38;;;;;;;36.30;14.03;;;;;;;11.43;48.43;102404.91;5047066;28;20056;-74
2024/01/13 10:59:04;;;;;;;34.67;14.27;;;;;;;11.51;48.21;102413.72;5061883;28;20029;-74
2024/01/13 11:01:31;;;;;;;32.17;13.07;;;;;;;10.99;49.70;102414.84;5034638;28;20163;-74
2024/01/13 11:03:58;;;;;;;34.63;15.20;;;;;;;10.85;49.23;102421.63;5039895;28;20115;-74
2024/01/13 11:06:25;;;;;;;39.47;15.00;;;;;;;11.21;48.83;102415.13;5048609;28;20033;-74
2024/01/13 11:08:51;;;;;;;36.23;15.50;;;;;;;11.74;47.42;102413.97;5049632;28;20035;-74
2024/01/13 11:11:23;;;;;;;39.83;15.77;;;;;;;11.95;47.57;102410.75;5048580;28;20033;-74
2024/01/13 11:14:03;;;;;;;38.20;15.67;;;;;;;11.92;47.31;102409.78;5047745;28;20140;-74